Time;durP1;ratioP1;P1;durP2;ratioP2;P2;SDS_P1;SDS_P2;PMS_P1;PMS_P2;Temp;Humidity;BMP_temperature;BMP_pressure;BME280_temperature;BME280_humidity;BME280_pressure;Samples;Min_cycle;Max_cycle;Signal;HPM_P1;HPM_P2
2024/01/19 00:01:00;;;;;;;;;;;;;;;1.36;64.64;101226.16;7360869;19;20348;-63
2024/01/19 00:03:25;;;;;;;;;;;;;;;1.33;64.77;101225.22;7356456;19;19921;-64
2024/01/19 00:05:51;;;;;;;;;;;;;;;1.32;65.04;101228.63;7359974;19;20010;-64
2024/01/19 00:08:16;;;;;;;;;;;;;;;1.32;64.71;101238.91;7353386;19;19939;-64
2024/01/19 00:10:42;;;;;;;;;;;;;;;1.27;64.56;101234.56;7358264;19;19954;-64
2024/01/19 00:13:07;;;;;;;;;;;;;;;1.25;64.62;101238.78;7361508;19;19911;-63
2024/01/19 00:15:32;;;;;;;;;;;;;;;1.25;64.64;101243.03;7363190;19;19919;-64
2024/01/19 00:17:58;;;;;;;;;;;;;;;1.20;64.78;101240.34;7358973;19;20257;-64
2024/01/19 00:20:23;;;;;;;;;;;;;;;1.18;65.08;101242.03;7361835;19;19923;-64
2024/01/19 00:22:48;;;;;;;;;;;;;;;1.17;65.06;101245.44;7359161;19;20588;-64
2024/01/19 00:25:14;;;;;;;;;;;;;;;1.15;64.96;101236.81;7362742;19;19915;-63
2024/01/19 00:27:39;;;;;;;;;;;;;;;1.14;65.15;101244.50;7365957;19;19927;-64
2024/01/19 00:30:04;;;;;;;;;;;;;;;1.11;64.96;101245.28;7364281;19;20023;-64
2024/01/19 00:32:29;;;;;;;;;;;;;;;1.10;64.80;101252.97;7361035;19;19922;-63
2024/01/19 00:34:55;;;;;;;;;;;;;;;1.08;64.85;101249.50;7362233;19;19914;-63
2024/01/19 00:37:20;;;;;;;;;;;;;;;1.06;64.89;101257.16;7357789;19;20028;-64
2024/01/19 00:39:45;;;;;;;;;;;;;;;1.05;65.03;101263.13;7359874;19;19926;-63
2024/01/19 00:42:10;;;;;;;;;;;;;;;1.01;64.81;101248.47;7359002;19;19919;-64
2024/01/19 00:44:36;;;;;;;;;;;;;;;1.00;65.13;101251.88;7367117;19;19943;-63
2024/01/19 00:47:02;;;;;;;;;;;;;;;0.98;65.03;101261.25;7367144;19;20392;-63
2024/01/19 00:49:27;;;;;;;;;;;;;;;0.97;65.17;101254.38;7364172;19;19923;-64
2024/01/19 00:51:52;;;;;;;;;;;;;;;0.95;64.95;101261.16;7361287;19;19929;-63
2024/01/19 00:54:18;;;;;;;;;;;;;;;0.93;65.25;101255.13;7359943;19;19929;-63
2024/01/19 00:56:43;;;;;;;;;;;;;;;0.92;65.01;101258.53;7365904;19;19926;-63
2024/01/19 00:59:08;;;;;;;;;;;;;;;0.90;64.77;101260.19;7366543;19;20698;-64
2024/01/19 01:01:33;;;;;;;;;;;;;;;0.88;65.17;101267.00;7361728;19;19918;-64
2024/01/19 01:03:59;;;;;;;;;;;;;;;0.86;65.02;101261.78;7367929;19;20677;-64
2024/01/19 01:06:24;;;;;;;;;;;;;;;0.86;64.87;101266.06;7370002;19;19926;-64
2024/01/19 01:08:50;;;;;;;;;;;;;;;0.84;65.12;101270.31;7368503;19;19939;-64
2024/01/19 01:11:15;;;;;;;;;;;;;;;0.83;64.93;101263.44;7369843;19;19914;-64
2024/01/19 01:13:40;;;;;;;;;;;;;;;0.81;65.30;101257.38;7373027;19;20376;-64
2024/01/19 01:16:05;;;;;;;;;;;;;;;0.80;65.01;101269.34;7363492;19;19918;-64
2024/01/19 01:18:31;;;;;;;;;;;;;;;0.78;65.18;101264.19;7365139;19;19943;-63
2024/01/19 01:20:57;;;;;;;;;;;;;;;0.78;65.29;101266.75;7373277;19;19923;-64
2024/01/19 01:23:23;;;;;;;;;;;;;;;0.77;65.21;101265.03;7366180;19;19933;-64
2024/01/19 01:25:48;;;;;;;;;;;;;;;0.76;65.00;101272.66;7369877;19;19911;-64
2024/01/19 01:28:13;;;;;;;;;;;;;;;0.75;65.00;101266.66;7370009;19;20462;-65
2024/01/19 01:30:40;;;;;;;;;;;;;;;0.76;65.16;101271.00;7369835;19;19923;-63
2024/01/19 01:33:06;;;;;;;;;;;;;;;0.76;65.46;101275.25;7372364;19;20251;-63
2024/01/19 01:35:32;;;;;;;;;;;;;;;0.75;65.63;101271.81;7370406;19;19926;-64
2024/01/19 01:37:57;;;;;;;;;;;;;;;0.75;65.53;101270.94;7365632;19;19933;-64
2024/01/19 01:40:23;;;;;;;;;;;;;;;0.75;65.67;101271.81;7367522;19;19918;-63
2024/01/19 01:42:48;;;;;;;;;;;;;;;0.75;65.30;101271.81;7366120;19;19927;-62
2024/01/19 01:45:13;;;;;;;;;;;;;;;0.75;65.60;101276.94;7366999;19;19940;-64
2024/01/19 01:47:38;;;;;;;;;;;;;;;0.75;65.68;101266.66;7368867;19;19923;-64
2024/01/19 01:50:04;;;;;;;;;;;;;;;0.74;65.49;101272.63;7366049;19;19926;-65
2024/01/19 01:52:30;;;;;;;;;;;;;;;0.75;65.62;101269.22;7366726;19;19990;-64
2024/01/19 01:54:55;;;;;;;;;;;;;;;0.74;65.41;101262.34;7367381;19;19911;-64
2024/01/19 01:57:22;;;;;;;;;;;;;;;0.75;65.47;101261.53;7364341;19;20364;-64
2024/01/19 01:59:48;;;;;;;;;;;;;;;0.75;65.90;101260.66;7364437;19;20967;-64
2024/01/19 02:02:14;;;;;;;;;;;;;;;0.76;65.78;101259.81;7363069;19;19919;-64
2024/01/19 02:04:39;;;;;;;;;;;;;;;0.76;65.68;101263.28;7366837;19;19940;-64
2024/01/19 02:07:04;;;;;;;;;;;;;;;0.76;65.76;101265.84;7367854;19;20333;-64
2024/01/19 02:09:30;;;;;;;;;;;;;;;0.76;65.66;101265.84;7369001;19;20600;-63
2024/01/19 02:11:56;;;;;;;;;;;;;;;0.76;65.72;101268.44;7361802;19;19994;-64
2024/01/19 02:14:21;;;;;;;;;;;;;;;0.76;65.65;101260.72;7370647;19;19915;-64
2024/01/19 02:16:46;;;;;;;;;;;;;;;0.76;65.79;101258.16;7368200;19;19915;-63
2024/01/19 02:19:12;;;;;;;;;;;;;;;0.76;66.01;101263.28;7370658;19;19922;-64
2024/01/19 02:21:37;;;;;;;;;;;;;;;0.76;66.02;101268.44;7367781;19;20384;-64
2024/01/19 02:24:03;;;;;;;;;;;;;;;0.76;66.06;101262.38;7368197;19;19944;-63
2024/01/19 02:26:32;;;;;;;;;;;;;;;0.75;65.64;101256.38;7369789;19;19998;-63
2024/01/19 02:28:58;;;;;;;;;;;;;;;0.76;66.04;101260.72;7371288;19;19925;-64
2024/01/19 02:31:23;;;;;;;;;;;;;;;0.76;66.07;101253.00;7371791;19;19922;-63
2024/01/19 02:33:49;;;;;;;;;;;;;;;0.75;66.11;101263.22;7365307;19;20344;-64
2024/01/19 02:36:14;;;;;;;;;;;;;;;0.75;66.01;101258.94;7369054;19;19919;-63
2024/01/19 02:38:39;;;;;;;;;;;;;;;0.74;65.88;101262.34;7369013;19;19914;-63
2024/01/19 02:41:04;;;;;;;;;;;;;;;0.74;66.13;101262.34;7370434;19;20377;-63
2024/01/19 02:43:30;;;;;;;;;;;;;;;0.74;65.77;101254.66;7368436;19;19919;-64
2024/01/19 02:45:55;;;;;;;;;;;;;;;0.74;65.77;101254.66;7375264;19;19918;-64
2024/01/19 02:48:20;;;;;;;;;;;;;;;0.73;66.14;101252.91;7371298;19;20361;-64
2024/01/19 02:50:45;;;;;;;;;;;;;;;0.74;66.11;101254.66;7365917;19;20675;-64
2024/01/19 02:53:11;;;;;;;;;;;;;;;0.73;65.76;101250.34;7359038;19;19959;-64
2024/01/19 02:55:36;;;;;;;;;;;;;;;0.74;65.96;101253.78;7364769;19;20340;-64
2024/01/19 02:58:01;;;;;;;;;;;;;;;0.74;66.02;101254.66;7364685;19;19911;-64
2024/01/19 03:00:27;;;;;;;;;;;;;;;0.74;65.87;101249.50;7367887;19;19926;-64
2024/01/19 03:02:52;;;;;;;;;;;;;;;0.74;66.05;101259.78;7366978;19;19933;-63
2024/01/19 03:05:17;;;;;;;;;;;;;;;0.74;65.92;101243.50;7368162;19;19942;-64
2024/01/19 03:07:42;;;;;;;;;;;;;;;0.74;66.11;101254.66;7374707;19;20362;-63
2024/01/19 03:10:08;;;;;;;;;;;;;;;0.74;66.40;101257.22;7376212;19;19923;-64
2024/01/19 03:12:33;;;;;;;;;;;;;;;0.74;66.17;101244.34;7365168;19;19911;-64
2024/01/19 03:14:58;;;;;;;;;;;;;;;0.74;66.39;101249.50;7367191;19;19918;-64
2024/01/19 03:17:23;;;;;;;;;;;;;;;0.74;66.31;101243.50;7367329;19;19982;-63
2024/01/19 03:19:50;;;;;;;;;;;;;;;0.73;66.40;101242.63;7364565;19;19911;-64
2024/01/19 03:22:15;;;;;;;;;;;;;;;0.73;66.09;101245.19;7368252;19;19943;-64
2024/01/19 03:24:40;;;;;;;;;;;;;;;0.73;66.26;101247.78;7362778;19;19986;-64
2024/01/19 03:27:06;;;;;;;;;;;;;;;0.72;65.94;101246.03;7367992;19;20752;-63
2024/01/19 03:29:31;;;;;;;;;;;;;;;0.72;66.36;101243.47;7365478;19;20419;-64
2024/01/19 03:31:56;;;;;;;;;;;;;;;0.71;66.17;101234.03;7368478;19;20347;-64
2024/01/19 03:34:22;;;;;;;;;;;;;;;0.71;66.30;101236.59;7365623;19;19986;-64
2024/01/19 03:36:47;;;;;;;;;;;;;;;0.69;66.35;101238.22;7361615;19;19906;-64
2024/01/19 03:39:12;;;;;;;;;;;;;;;0.69;66.31;101240.81;7367141;19;19929;-64
2024/01/19 03:41:38;;;;;;;;;;;;;;;0.69;66.38;101239.94;7365605;19;19919;-64
2024/01/19 03:44:03;;;;;;;;;;;;;;;0.67;66.16;101234.75;7365588;19;19923;-64
2024/01/19 03:46:28;;;;;;;;;;;;;;;0.67;66.51;101229.63;7370422;19;19937;-63
2024/01/19 03:48:53;;;;;;;;;;;;;;;0.66;66.28;101235.59;7368411;19;19951;-62
2024/01/19 03:51:18;;;;;;;;;;;;;;;0.65;66.63;101232.97;7368332;19;20353;-64
2024/01/19 03:53:44;;;;;;;;;;;;;;;0.63;66.59;101230.38;7370802;19;19930;-64
2024/01/19 03:56:09;;;;;;;;;;;;;;;0.63;66.40;101229.50;7363613;19;19918;-63
2024/01/19 03:58:35;;;;;;;;;;;;;;;0.62;66.37;101233.78;7364164;19;19927;-64
2024/01/19 04:01:00;;;;;;;;;;;;;;;0.61;66.10;101236.28;7372517;19;19930;-64
2024/01/19 04:03:25;;;;;;;;;;;;;;;0.59;66.62;101231.13;7361606;19;19926;-64
2024/01/19 04:05:51;;;;;;;;;;;;;;;0.58;66.42;101234.53;7366342;19;19941;-64
2024/01/19 04:08:16;;;;;;;;;;;;;;;0.59;66.51;101238.81;7365007;19;20332;-64
2024/01/19 04:10:41;;;;;;;;;;;;;;;0.59;66.55;101236.25;7360962;19;20384;-64
2024/01/19 04:13:06;;;;;;;;;;;;;;;0.58;66.53;101237.09;7368159;19;19954;-63
2024/01/19 04:15:32;;;;;;;;;;;;;;;0.59;66.65;101238.81;7362320;19;20463;-64
2024/01/19 04:17:57;;;;;;;;;;;;;;;0.59;66.83;101238.81;7352734;19;19919;-64
2024/01/19 04:20:22;;;;;;;;;;;;;;;0.60;66.51;101240.56;7351950;19;19987;-64
2024/01/19 04:22:48;;;;;;;;;;;;;;;0.61;66.70;101232.03;7365429;19;19923;-64
2024/01/19 04:25:13;;;;;;;;;;;;;;;0.63;66.85;101239.78;7360179;19;19923;-64
2024/01/19 04:27:38;;;;;;;;;;;;;;;0.64;66.57;101242.38;7363303;19;19923;-64
2024/01/19 04:30:04;;;;;;;;;;;;;;;0.67;67.06;101242.47;7360024;19;20436;-64
2024/01/19 04:32:29;;;;;;;;;;;;;;;0.68;66.58;101244.22;7367384;19;19911;-64
2024/01/19 04:34:54;;;;;;;;;;;;;;;0.69;66.99;101240.81;7363272;19;22331;-63
2024/01/19 04:37:20;;;;;;;;;;;;;;;0.71;66.68;101252.00;7363749;19;20237;-64
2024/01/19 04:39:45;;;;;;;;;;;;;;;0.72;66.85;101253.75;7364769;19;19927;-64
2024/01/19 04:42:12;;;;;;;;;;;;;;;0.73;66.92;101254.63;7366046;19;20327;-64
2024/01/19 04:44:37;;;;;;;;;;;;;;;0.74;66.84;101256.34;7365259;19;19925;-64
2024/01/19 04:47:03;;;;;;;;;;;;;;;0.75;66.82;101256.38;7375715;19;19919;-63
2024/01/19 04:49:28;;;;;;;;;;;;;;;0.76;66.77;101257.25;7366228;19;19955;-64
2024/01/19 04:51:53;;;;;;;;;;;;;;;0.76;66.98;101263.28;7364384;19;19952;-63
2024/01/19 04:54:19;;;;;;;;;;;;;;;0.76;67.09;101263.28;7360088;19;19918;-64
2024/01/19 04:56:44;;;;;;;;;;;;;;;0.78;66.67;101265.88;7365338;19;19982;-63
2024/01/19 04:59:09;;;;;;;;;;;;;;;0.77;66.85;101265.03;7367056;19;20364;-66
2024/01/19 05:01:34;;;;;;;;;;;;;;;0.79;66.97;101267.63;7370483;19;19958;-63
2024/01/19 05:04:00;;;;;;;;;;;;;;;0.81;67.20;101265.06;7363947;19;19918;-63
2024/01/19 05:06:25;;;;;;;;;;;;;;;0.81;66.90;101257.38;7364670;19;19918;-64
2024/01/19 05:08:50;;;;;;;;;;;;;;;0.81;67.22;101257.38;7361503;19;19923;-64
2024/01/19 05:11:15;;;;;;;;;;;;;;;0.83;67.26;101254.03;7368523;19;19926;-64
2024/01/19 05:13:41;;;;;;;;;;;;;;;0.84;67.01;101254.88;7365320;19;20345;-63
2024/01/19 05:16:07;;;;;;;;;;;;;;;0.86;67.13;101253.22;7367170;19;19926;-63
2024/01/19 05:18:33;;;;;;;;;;;;;;;0.86;67.04;101256.66;7369059;19;19942;-64
2024/01/19 05:20:58;;;;;;;;;;;;;;;0.88;67.04;101251.56;7368337;19;19926;-63
2024/01/19 05:23:23;;;;;;;;;;;;;;;0.89;67.01;101253.31;7361551;19;20387;-64
2024/01/19 05:25:49;;;;;;;;;;;;;;;0.90;67.36;101255.03;7365411;19;19918;-64
2024/01/19 05:28:14;;;;;;;;;;;;;;;0.91;67.14;101251.63;7330395;19;19918;-63
2024/01/19 05:30:40;;;;;;;;;;;;;;;0.88;66.99;101249.00;7365317;19;19930;-64
2024/01/19 05:33:05;;;;;;;;;;;;;;;0.95;67.44;101253.44;7362893;19;19971;-64
2024/01/19 05:35:31;;;;;;;;;;;;;;;0.96;67.43;101250.03;7366951;19;19937;-64
2024/01/19 05:37:56;;;;;;;;;;;;;;;0.98;67.49;101249.25;7362283;19;19948;-64
2024/01/19 05:40:21;;;;;;;;;;;;;;;0.99;67.23;101247.56;7369187;19;19919;-63
2024/01/19 05:42:46;;;;;;;;;;;;;;;1.01;67.05;101245.88;7369717;19;19921;-64
2024/01/19 05:45:12;;;;;;;;;;;;;;;1.03;67.06;101244.25;7373482;19;20303;-64
2024/01/19 05:47:37;;;;;;;;;;;;;;;1.05;67.39;101247.72;7371963;19;20609;-63
2024/01/19 05:50:02;;;;;;;;;;;;;;;1.06;67.50;101246.88;7368721;19;19929;-63
2024/01/19 05:52:27;;;;;;;;;;;;;;;1.07;67.50;101235.78;7368679;19;19918;-63
2024/01/19 05:54:53;;;;;;;;;;;;;;;1.09;67.33;101246.09;7367693;19;19926;-64
2024/01/19 05:57:18;;;;;;;;;;;;;;;1.10;67.12;101250.41;7370580;19;20316;-64
2024/01/19 05:59:43;;;;;;;;;;;;;;;1.12;67.17;101256.47;7372304;19;20475;-64
2024/01/19 06:02:08;;;;;;;;;;;;;;;1.11;67.12;101255.56;7375984;19;19927;-64
2024/01/19 06:04:37;;;;;;;;;;;;;;;1.12;67.36;101262.47;7369853;19;20344;-64
2024/01/19 06:07:02;;;;;;;;;;;;;;;1.11;67.42;101255.56;7365170;19;19919;-63
2024/01/19 06:09:28;;;;;;;;;;;;;;;1.12;67.03;101254.75;7364502;19;19929;-63
2024/01/19 06:11:54;;;;;;;;;;;;;;;1.13;67.02;101259.06;7370028;19;19919;-64
2024/01/19 06:14:19;;;;;;;;;;;;;;;1.13;67.28;101253.06;7365904;19;19911;-64
2024/01/19 06:16:44;;;;;;;;;;;;;;;1.12;67.52;101244.47;7369829;19;19927;-64
2024/01/19 06:19:10;;;;;;;;;;;;;;;1.12;67.30;101252.19;7371420;19;19919;-63
2024/01/19 06:21:35;;;;;;;;;;;;;;;1.12;67.33;101246.19;7369203;19;19922;-64
2024/01/19 06:24:00;;;;;;;;;;;;;;;1.13;67.36;101238.50;7364820;19;19922;-63
2024/01/19 06:26:32;;;;;;;;;;;;;;;1.12;67.34;101241.91;7367953;19;19939;-63
2024/01/19 06:28:57;;;;;;;;;;;;;;;1.13;67.59;101243.63;7363742;19;19919;-64
2024/01/19 06:31:22;;;;;;;;;;;;;;;1.13;67.47;101241.06;7369167;19;19922;-63
2024/01/19 06:33:47;;;;;;;;;;;;;;;1.13;67.32;101242.78;7374098;19;20365;-64
2024/01/19 06:36:13;;;;;;;;;;;;;;;1.14;67.29;101244.50;7374122;19;19947;-63
2024/01/19 06:38:38;;;;;;;;;;;;;;;1.14;67.11;101237.66;7371162;19;19919;-64
2024/01/19 06:41:03;;;;;;;;;;;;;;;1.15;67.15;101243.66;7362183;19;19927;-63
2024/01/19 06:43:29;;;;;;;;;;;;;;;1.14;67.34;101237.66;7365554;19;19944;-64
2024/01/19 06:45:54;;;;;;;;;;;;;;;1.15;67.38;101236.81;7368200;19;19919;-64
2024/01/19 06:48:19;;;;;;;;;;;;;;;1.15;67.63;101234.25;7370867;19;19911;-64
2024/01/19 06:50:44;;;;;;;;;;;;;;;1.16;67.48;101241.13;7372975;19;19922;-63
2024/01/19 06:53:10;;;;;;;;;;;;;;;1.15;67.34;101234.25;7367262;19;19911;-64
2024/01/19 06:55:35;;;;;;;;;;;;;;;1.14;67.32;101235.06;7369452;19;19923;-64
2024/01/19 06:58:00;;;;;;;;;;;;;;;1.15;67.12;101236.81;7359411;19;19938;-64
2024/01/19 07:00:26;;;;;;;;;;;;;;;1.14;67.23;101240.22;7368444;19;19923;-64
2024/01/19 07:02:51;;;;;;;;;;;;;;;1.13;67.15;101240.19;7368121;19;19922;-64
2024/01/19 07:05:16;;;;;;;;;;;;;;;1.12;67.28;101236.75;7366780;19;19930;-64
2024/01/19 07:07:41;;;;;;;;;;;;;;;1.10;67.07;101234.97;7371085;19;19919;-64
2024/01/19 07:10:07;;;;;;;;;;;;;;;1.09;67.41;101240.94;7363692;19;19932;-64
2024/01/19 07:12:33;;;;;;;;;;;;;;;1.07;67.25;101243.50;7371295;19;19919;-64
2024/01/19 07:14:58;;;;;;;;;;;;;;;1.06;67.21;101251.16;7364001;19;19914;-64
2024/01/19 07:17:23;;;;;;;;;;;;;;;1.04;67.49;101248.53;7367070;19;19998;-63
2024/01/19 07:19:48;;;;;;;;;;;;;;;1.00;67.46;101237.31;7364553;19;20635;-64
2024/01/19 07:22:14;;;;;;;;;;;;;;;1.00;67.21;101241.56;7366254;19;20012;-64
2024/01/19 07:24:39;;;;;;;;;;;;;;;0.99;67.33;101242.41;7366262;19;19926;-64
2024/01/19 07:27:04;;;;;;;;;;;;;;;0.97;67.27;101236.38;7365581;19;19936;-64
2024/01/19 07:29:31;;;;;;;;;;;;;;;0.96;67.25;101234.63;7365412;19;19922;-64
2024/01/19 07:31:56;;;;;;;;;;;;;;;0.95;67.17;101233.75;7366538;19;19926;-65
2024/01/19 07:34:22;;;;;;;;;;;;;;;0.93;67.45;101240.56;7366043;19;19919;-64
2024/01/19 07:36:47;;;;;;;;;;;;;;;0.93;67.17;101244.84;7364981;19;19987;-65
2024/01/19 07:39:12;;;;;;;;;;;;;;;0.91;67.10;101249.97;7364591;19;19969;-64
2024/01/19 07:41:37;;;;;;;;;;;;;;;0.89;67.10;101237.88;7365787;19;19915;-64
2024/01/19 07:44:03;;;;;;;;;;;;;;;0.89;67.07;101243.03;7363489;19;20621;-64
2024/01/19 07:46:28;;;;;;;;;;;;;;;0.86;67.40;101237.78;7357626;19;19907;-64
2024/01/19 07:48:53;;;;;;;;;;;;;;;0.85;67.19;101241.19;7370294;19;20295;-64
2024/01/19 07:51:19;;;;;;;;;;;;;;;0.85;67.25;101241.19;7357398;19;19926;-64
2024/01/19 07:53:45;;;;;;;;;;;;;;;0.82;67.00;101239.44;7365892;19;20613;-64
2024/01/19 07:56:10;;;;;;;;;;;;;;;0.82;67.45;101238.56;7359656;19;19910;-63
2024/01/19 07:58:35;;;;;;;;;;;;;;;0.75;67.41;101230.66;7360982;19;19921;-65
2024/01/19 08:01:00;;;;;;;;;;;;;;;0.80;67.30;101243.66;7368261;19;19911;-63
2024/01/19 08:03:26;;;;;;;;;;;;;;;0.81;67.44;101242.81;7364956;19;20254;-64
2024/01/19 08:05:51;;;;;;;;;;;;;;;0.81;67.24;101245.38;7364063;19;19919;-63
2024/01/19 08:08:16;;;;;;;;;;;;;;;0.82;67.21;101241.13;7367265;19;19922;-63
2024/01/19 08:10:42;;;;;;;;;;;;;;;0.82;67.16;101239.44;7365876;19;19919;-63
2024/01/19 08:13:07;;;;;;;;;;;;;;;0.83;67.66;101237.72;7365261;19;20384;-64
2024/01/19 08:15:32;;;;;;;;;;;;;;;0.84;67.49;101239.47;7362674;19;19922;-64
2024/01/19 08:17:57;;;;;;;;;;;;;;;0.85;67.39;101247.19;7361170;19;19919;-64
2024/01/19 08:20:24;;;;;;;;;;;;;;;0.86;67.65;101248.94;7363847;19;19918;-64
2024/01/19 08:22:49;;;;;;;;;;;;;;;0.88;67.47;101243.84;7362729;19;19923;-63
2024/01/19 08:25:15;;;;;;;;;;;;;;;0.90;67.29;101252.47;7358322;19;19927;-64
2024/01/19 08:27:41;;;;;;;;;;;;;;;0.90;67.46;101247.31;7365456;19;19927;-64
2024/01/19 08:30:06;;;;;;;;;;;;;;;0.90;67.26;101255.91;7360128;19;19918;-64
2024/01/19 08:32:31;;;;;;;;;;;;;;;0.92;67.24;101256.84;7363772;19;19930;-63
2024/01/19 08:34:57;;;;;;;;;;;;;;;0.93;67.47;101262.84;7361181;19;19937;-64
2024/01/19 08:37:22;;;;;;;;;;;;;;;0.94;67.62;101262.00;7357799;19;20021;-64
2024/01/19 08:39:48;;;;;;;;;;;;;;;0.96;67.30;101273.19;7365625;19;19930;-64
2024/01/19 08:42:13;;;;;;;;;;;;;;;0.96;67.50;101275.75;7365248;19;19919;-63
2024/01/19 08:44:42;;;;;;;;;;;;;;;0.98;67.53;101280.13;7362919;19;20379;-64
2024/01/19 08:47:07;;;;;;;;;;;;;;;1.00;67.72;101268.16;7364396;19;19925;-64
2024/01/19 08:49:33;;;;;;;;;;;;;;;1.03;67.53;101275.09;7333665;19;19923;-64
2024/01/19 08:51:58;;;;;;;;;;;;;;;1.04;67.50;101275.13;7362036;19;19975;-64
2024/01/19 08:54:23;;;;;;;;;;;;;;;1.06;67.68;101270.00;7364984;19;19927;-64
2024/01/19 08:56:49;;;;;;;;;;;;;;;1.09;67.49;101272.69;7365435;19;20512;-64
2024/01/19 08:59:17;;;;;;;;;;;;;;;1.10;67.43;101276.13;7365239;19;19929;-63
2024/01/19 09:01:43;;;;;;;;;;;;;;;1.12;67.43;101272.75;7364174;19;20365;-64
2024/01/19 09:04:08;;;;;;;;;;;;;;;1.15;67.53;101271.97;7364189;19;19919;-64
2024/01/19 09:06:33;;;;;;;;;;;;;;;1.16;67.64;101271.97;7365662;19;19919;-63
2024/01/19 09:09:01;;;;;;;;;;;;;;;1.18;67.50;101272.91;7363470;19;19926;-64
2024/01/19 09:11:27;;;;;;;;;;;;;;;1.20;67.52;101273.81;7363962;19;19978;-64
2024/01/19 09:13:52;;;;;;;;;;;;;;;1.23;67.21;101276.47;7358198;19;19990;-63
2024/01/19 09:16:18;;;;;;;;;;;;;;;1.23;67.29;101271.31;7360367;19;19923;-63
2024/01/19 09:18:44;;;;;;;;;;;;;;;1.27;67.31;101278.28;7371480;19;19923;-64
2024/01/19 09:21:14;;;;;;;;;;;;;;;1.28;67.46;101269.72;7368901;19;19964;-63
2024/01/19 09:23:40;;;;;;;;;;;;;;;1.29;67.46;101281.75;7372598;19;19915;-64
2024/01/19 09:26:05;;;;;;;;;;;;;;;1.33;67.15;101281.84;7372266;19;19944;-63
2024/01/19 09:28:30;;;;;;;;;;;;;;;1.35;67.56;101285.31;7370047;19;19915;-65
2024/01/19 09:30:55;;;;;;;;;;;;;;;1.37;67.64;101292.25;7376292;19;19927;-64
2024/01/19 09:33:21;;;;;;;;;;;;;;;1.43;67.36;101296.66;7369606;19;19919;-64
2024/01/19 09:35:46;;;;;;;;;;;;;;;1.47;67.76;101294.22;7372486;19;19940;-63
2024/01/19 09:38:11;;;;;;;;;;;;;;;1.59;68.07;101296.19;7366891;19;19919;-64
2024/01/19 09:40:39;;;;;;;;;;;;;;;1.73;67.79;101289.66;7369465;19;19932;-63
2024/01/19 09:43:04;;;;;;;;;;;;;;;1.93;68.01;101296.97;7371294;19;19939;-66
2024/01/19 09:45:35;;;;;;;;;;;;;;;2.13;68.66;101295.69;7371681;19;20734;-64
2024/01/19 09:48:19;;;;;;;;;;;;;;;2.33;68.59;101294.38;7373264;19;19919;-64
2024/01/19 09:50:46;;;;;;;;;;;;;;;2.54;68.39;101296.53;7366609;19;20259;-64
2024/01/19 09:53:20;;;;;;;;;;;;;;;2.72;68.66;101290.84;7371537;19;19919;-63
2024/01/19 09:55:46;;;;;;;;;;;;;;;2.92;69.16;101290.34;7364501;19;20905;-64
2024/01/19 09:58:12;;;;;;;;;;;;;;;3.13;69.11;101298.44;7371409;19;19932;-64
2024/01/19 10:00:37;;;;;;;;;;;;;;;3.31;68.52;101296.19;7367684;19;19922;-64
2024/01/19 10:03:04;;;;;;;;;;;;;;;3.51;69.10;101285.31;7370961;19;19994;-65
2024/01/19 10:05:29;;;;;;;;;;;;;;;3.66;68.52;101282.97;7366944;19;19923;-64
2024/01/19 10:07:55;;;;;;;;;;;;;;;3.83;68.70;101288.34;7371228;19;20728;-64
2024/01/19 10:10:21;;;;;;;;;;;;;;;4.00;68.75;101288.59;7369272;19;19938;-63
2024/01/19 10:12:46;;;;;;;;;;;;;;;4.16;69.00;101280.22;7372960;19;19933;-64
2024/01/19 10:15:12;;;;;;;;;;;;;;;4.31;68.47;101280.41;7370189;19;19926;-65
2024/01/19 10:17:38;;;;;;;;;;;;;;;4.46;68.55;101278.81;7365810;19;19938;-64
2024/01/19 10:20:04;;;;;;;;;;;;;;;4.60;68.17;101279.84;7372702;19;20111;-65
2024/01/19 10:22:30;;;;;;;;;;;;;;;4.76;68.64;101279.16;7376294;19;19927;-64
2024/01/19 10:25:02;;;;;;;;;;;;;;;4.91;68.33;101274.13;7377352;19;19919;-64
2024/01/19 10:27:40;;;;;;;;;;;;;;;5.08;68.24;101288.97;7365195;19;19938;-64
2024/01/19 10:30:10;;;;;;;;;;;;;;;5.24;68.44;101288.25;7370201;19;19915;-64
2024/01/19 10:32:39;;;;;;;;;;;;;;;5.39;67.90;101282.34;7370037;19;19922;-63
2024/01/19 10:35:30;;;;;;;;;;;;;;;5.54;67.90;101286.75;7367778;19;19926;-63
2024/01/19 10:38:03;;;;;;;;;;;;;;;5.71;67.78;101280.81;7365946;19;19918;-64
2024/01/19 10:40:29;;;;;;;;;;;;;;;5.85;67.44;101280.91;7365469;19;19922;-63
2024/01/19 10:42:56;;;;;;;;;;;;;;;6.01;67.83;101289.69;7371386;19;20598;-63
2024/01/19 10:45:21;;;;;;;;;;;;;;;6.15;67.63;101277.66;7366870;19;19930;-64
2024/01/19 10:47:48;;;;;;;;;;;;;;;6.31;67.49;101273.41;7373280;19;19930;-64
2024/01/19 10:50:14;;;;;;;;;;;;;;;6.43;67.33;101278.63;7364836;19;19933;-64
2024/01/19 10:52:40;;;;;;;;;;;;;;;6.59;67.67;101273.47;7368384;19;20487;-64
2024/01/19 10:55:06;;;;;;;;;;;;;;;6.73;67.04;101276.97;7369686;19;19948;-64
2024/01/19 10:57:31;;;;;;;;;;;;;;;6.86;66.82;101278.75;7366501;19;19911;-64
2024/01/19 10:59:56;;;;;;;;;;;;;;;6.98;66.94;101283.94;7367092;19;19951;-64
2024/01/19 11:02:22;;;;;;;;;;;;;;;7.12;66.97;101281.38;7365114;19;19986;-64
2024/01/19 11:04:47;;;;;;;;;;;;;;;7.26;66.74;101279.66;7366612;19;19939;-64
2024/01/19 11:07:13;;;;;;;;;;;;;;;7.42;66.58;101285.72;7368265;19;19911;-63
2024/01/19 11:09:40;;;;;;;;;;;;;;;7.60;66.56;101282.22;7369559;19;19974;-63
2024/01/19 11:12:07;;;;;;;;;;;;;;;7.75;66.31;101278.72;7369427;19;19923;-63
2024/01/19 11:14:32;;;;;;;;;;;;;;;7.91;65.82;101277.84;7368039;19;19927;-64
2024/01/19 11:16:58;;;;;;;;;;;;;;;8.03;65.72;101270.00;7366939;19;19937;-63
2024/01/19 11:19:23;;;;;;;;;;;;;;;8.15;65.37;101270.81;7366042;19;19923;-64
2024/01/19 11:21:49;;;;;;;;;;;;;;;8.29;65.57;101266.44;7366550;19;19933;-63
2024/01/19 11:24:16;;;;;;;;;;;;;;;8.40;64.93;101272.50;7364311;19;19918;-63
2024/01/19 11:26:47;;;;;;;;;;;;;;;8.58;65.39;101274.16;7358600;19;19940;-64
2024/01/19 11:29:18;;;;;;;;;;;;;;;8.72;64.83;101277.53;7366704;19;19923;-65
2024/01/19 11:31:44;;;;;;;;;;;;;;;8.92;65.15;101273.94;7366046;19;20264;-64
2024/01/19 11:34:29;;;;;;;;;;;;;;;9.16;64.98;101286.78;7364050;19;20018;-62
2024/01/19 11:36:54;;;;;;;;;;;;;;;9.36;64.54;101289.22;7368118;19;19959;-64
2024/01/19 11:39:36;;;;;;;;;;;;;;;9.52;64.29;101280.41;7366469;19;19915;-64
2024/01/19 11:42:02;;;;;;;;;;;;;;;9.70;64.33;101286.34;7365041;19;19933;-63
2024/01/19 11:44:39;;;;;;;;;;;;;;;9.86;63.83;101282.69;7359862;19;19923;-63
2024/01/19 11:47:04;;;;;;;;;;;;;;;10.03;63.65;101288.56;7366809;19;19915;-64
2024/01/19 11:49:30;;;;;;;;;;;;;;;10.22;63.86;101286.63;7337059;19;19939;-64
2024/01/19 11:52:15;;;;;;;;;;;;;;;10.42;63.79;101289.03;7360068;19;19922;-64
2024/01/19 11:54:42;;;;;;;;;;;;;;;10.60;63.34;101282.72;7358819;19;19919;-64
2024/01/19 11:57:19;;;;;;;;;;;;;;;10.79;63.54;101284.16;7362556;19;19990;-64
2024/01/19 11:59:45;;;;;;;;;;;;;;;10.96;63.02;101286.56;7366069;19;19930;-64
2024/01/19 12:02:20;;;;;;;;;;;;;;;11.12;62.66;101282.81;7367578;19;19915;-64
2024/01/19 12:04:46;;;;;;;;;;;;;;;11.32;62.12;101294.72;7362653;19;19914;-64
2024/01/19 12:07:15;;;;;;;;;;;;;;;11.47;62.00;101283.13;7362307;19;20384;-64
2024/01/19 12:09:40;;;;;;;;;;;;;;;11.65;61.39;101277.56;7368655;19;19922;-64
2024/01/19 12:12:06;;;;;;;;;;;;;;;11.74;61.16;101284.41;7363574;19;19923;-64
2024/01/19 12:14:31;;;;;;;;;;;;;;;11.81;60.73;101292.13;7364623;19;20372;-64
2024/01/19 12:16:57;;;;;;;;;;;;;;;11.92;60.75;101276.25;7360722;19;19915;-65
2024/01/19 12:19:23;;;;;;;;;;;;;;;11.99;60.45;101293.53;7370305;19;19922;-64
2024/01/19 12:21:48;;;;;;;;;;;;;;;12.07;59.63;101275.09;7363859;19;19946;-64
2024/01/19 12:24:18;;;;;;;;;;;;;;;12.09;59.59;101284.63;7365500;19;20554;-64
2024/01/19 12:26:50;;;;;;;;;;;;;;;12.14;59.29;101272.31;7365923;19;19911;-64
2024/01/19 12:29:26;;;;;;;;;;;;;;;12.17;59.32;101277.50;7365471;19;19918;-64
2024/01/19 12:32:07;;;;;;;;;;;;;;;12.19;58.57;101270.47;7365105;19;19918;-64
2024/01/19 12:34:32;;;;;;;;;;;;;;;12.18;58.66;101258.25;7362085;19;19923;-64
2024/01/19 12:36:57;;;;;;;;;;;;;;;12.18;58.54;101253.03;7364637;19;20492;-64
2024/01/19 12:39:22;;;;;;;;;;;;;;;12.22;58.19;101268.69;7339760;19;19936;-65